»·PEaware :: N629MS 2S7-KEUG

N629MS :: 2S7-KEUG

FLIGHT INFORMATION

Flight Status: Arrived
Operator: Privately registered:
United States
More flights under this callsign
Pilot: Mike T. (22542)
Aircraft: BEECH AIRCRAFT BARON
(BE58)
More flights by this aircraft type
Origin: 2S7 Chiloquin State
United States
Destination: KEUG Mahlon Sweet
United States
More flights between these airports :: More routes between these airports
Route:
File this flight plan on PilotEdge
Remarks:
Altitude:
(Current/Filed)
8,500ft
Speed:
(Current/Filed)
180kts
Departed: 30-Dec-18 10:02 AM
Arrived: 30-Dec-18 10:43 AM
Distance/Time
Traveled:
109nm/0:41
Distance/Time
To Go:
Arrived

Flight Plot

Page will automatically refresh every two minutes.

Flight plan parsing failed; only flown route is shown


Map Options




Map Legend


Flown Route
Filed Route
Departure Airport
Arrival Airport
Navaid (VOR, NDB)
Fix

Horizontal Profiles

Position Reports

Time Latitude Longitude Heading Altitude Ground
Speed
30-Dec-18 09:47 42.586144 -121.876250 8 4219ft 0kts
30-Dec-18 09:48 42.586144 -121.876250 8 4219ft 0kts
30-Dec-18 09:49 42.586144 -121.876250 8 4219ft 0kts
30-Dec-18 09:50 42.586145 -121.876250 8 4219ft 0kts
30-Dec-18 09:51 42.586146 -121.876250 8 4219ft 0kts
30-Dec-18 09:52 42.586146 -121.876250 8 4219ft 0kts
30-Dec-18 09:53 42.586147 -121.876250 8 4219ft 0kts
30-Dec-18 09:54 42.586147 -121.876250 8 4219ft 0kts
30-Dec-18 09:55 42.586147 -121.876250 8 4219ft 0kts
30-Dec-18 09:56 42.586148 -121.876250 8 4219ft 0kts
30-Dec-18 09:57 42.586114 -121.876386 166 4219ft 7kts
30-Dec-18 09:58 42.585177 -121.875733 183 4219ft 10kts
30-Dec-18 09:59 42.580745 -121.876598 188 4219ft 21kts
30-Dec-18 10:00 42.578284 -121.876589 255 4219ft 0kts
30-Dec-18 10:01 42.579588 -121.876846 9 4219ft 52kts
30-Dec-18 10:02 42.612661 -121.871549 5 4862ft 159kts
30-Dec-18 10:03 42.652086 -121.894825 320 5889ft 163kts
30-Dec-18 10:04 42.687181 -121.933630 320 6886ft 161kts
30-Dec-18 10:05 42.722014 -121.972031 320 7879ft 160kts
30-Dec-18 10:06 42.757556 -122.011246 320 8492ft 176kts
30-Dec-18 10:07 42.799370 -122.053439 326 8382ft 190kts
30-Dec-18 10:08 42.841918 -122.091670 326 8488ft 182kts
30-Dec-18 10:09 42.883753 -122.129981 325 8497ft 181kts
30-Dec-18 10:10 42.925658 -122.168506 324 8510ft 181kts
30-Dec-18 10:11 42.967344 -122.206915 325 8507ft 181kts
30-Dec-18 10:12 43.009193 -122.245458 325 8512ft 182kts
30-Dec-18 10:13 43.050534 -122.284859 324 8504ft 180kts
30-Dec-18 10:14 43.091528 -122.324135 324 8492ft 181kts
30-Dec-18 10:15 43.132730 -122.363768 324 8507ft 181kts
30-Dec-18 10:16 43.173975 -122.403551 324 8499ft 180kts
30-Dec-18 10:17 43.215137 -122.442571 324 8551ft 178kts
30-Dec-18 10:18 43.256271 -122.480636 324 8554ft 179kts
30-Dec-18 10:19 43.297787 -122.518398 325 8554ft 179kts
30-Dec-18 10:20 43.339916 -122.555123 326 8554ft 179kts
30-Dec-18 10:21 43.382175 -122.591395 326 8554ft 179kts
30-Dec-18 10:22 43.424467 -122.627720 326 8555ft 179kts
30-Dec-18 10:23 43.466828 -122.664129 326 8555ft 179kts
30-Dec-18 10:24 43.509202 -122.700575 326 8554ft 179kts
30-Dec-18 10:25 43.551512 -122.736864 327 8554ft 179kts
30-Dec-18 10:26 43.593955 -122.772036 327 8246ft 175kts
30-Dec-18 10:27 43.635630 -122.805827 327 7645ft 171kts
30-Dec-18 10:28 43.678138 -122.839437 327 6769ft 180kts
30-Dec-18 10:29 43.721670 -122.874819 327 5873ft 183kts
30-Dec-18 10:30 43.765734 -122.911206 327 4973ft 185kts
30-Dec-18 10:31 43.809739 -122.948005 327 4076ft 184kts
30-Dec-18 10:32 43.853216 -122.985601 328 3175ft 185kts
30-Dec-18 10:33 43.896354 -123.025265 327 2359ft 183kts
30-Dec-18 10:34 43.936974 -123.061378 331 2283ft 166kts
30-Dec-18 10:35 43.978403 -123.089196 339 2287ft 167kts
30-Dec-18 10:36 44.018726 -123.125069 322 1621ft 173kts
30-Dec-18 10:37 44.055680 -123.164769 333 1337ft 156kts
30-Dec-18 10:38 44.093535 -123.189208 353 1354ft 145kts
30-Dec-18 10:39 44.128496 -123.194689 356 1340ft 119kts
30-Dec-18 10:40 44.158116 -123.205418 297 1274ft 111kts
30-Dec-18 10:41 44.138641 -123.219049 176 597ft 104kts
30-Dec-18 10:42 44.126227 -123.218959 179 371ft 13kts
30-Dec-18 10:43 44.125206 -123.218179 147 371ft 7kts
30-Dec-18 10:44 44.124501 -123.217501 141 371ft 17kts

Navigation Log

Ident Type
Flight plan parsing failed, navigation log unavailable